sensor_id;sensor_type;location;lat;lon;timestamp;temperature;humidity
8711;DHT22;4392;47.400;8.062;2022-08-01T00:00:28;26.20;66.20
8711;DHT22;4392;47.400;8.062;2022-08-01T00:02:54;26.20;66.20
8711;DHT22;4392;47.400;8.062;2022-08-01T00:05:19;26.10;66.00
8711;DHT22;4392;47.400;8.062;2022-08-01T00:07:45;26.10;65.90
8711;DHT22;4392;47.400;8.062;2022-08-01T00:10:13;26.10;66.00
8711;DHT22;4392;47.400;8.062;2022-08-01T00:12:40;26.10;66.60
8711;DHT22;4392;47.400;8.062;2022-08-01T00:15:08;26.00;66.40
8711;DHT22;4392;47.400;8.062;2022-08-01T00:17:34;26.00;66.90
8711;DHT22;4392;47.400;8.062;2022-08-01T00:20:01;25.70;67.50
8711;DHT22;4392;47.400;8.062;2022-08-01T00:22:30;25.80;67.60
8711;DHT22;4392;47.400;8.062;2022-08-01T00:24:55;25.70;67.90
8711;DHT22;4392;47.400;8.062;2022-08-01T00:27:21;25.70;68.10
8711;DHT22;4392;47.400;8.062;2022-08-01T00:29:47;25.80;67.40
8711;DHT22;4392;47.400;8.062;2022-08-01T00:32:15;25.80;67.70
8711;DHT22;4392;47.400;8.062;2022-08-01T00:34:41;25.80;67.40
8711;DHT22;4392;47.400;8.062;2022-08-01T00:37:06;25.80;68.30
8711;DHT22;4392;47.400;8.062;2022-08-01T00:39:32;25.80;68.40
8711;DHT22;4392;47.400;8.062;2022-08-01T00:41:59;25.80;68.00
8711;DHT22;4392;47.400;8.062;2022-08-01T00:44:27;25.80;68.40
8711;DHT22;4392;47.400;8.062;2022-08-01T00:46:53;25.80;68.20
8711;DHT22;4392;47.400;8.062;2022-08-01T00:49:19;25.80;68.30
8711;DHT22;4392;47.400;8.062;2022-08-01T00:51:45;25.80;68.40
8711;DHT22;4392;47.400;8.062;2022-08-01T00:54:10;25.80;68.00
8711;DHT22;4392;47.400;8.062;2022-08-01T00:56:36;25.80;68.30
8711;DHT22;4392;47.400;8.062;2022-08-01T00:59:03;25.80;68.10
8711;DHT22;4392;47.400;8.062;2022-08-01T01:01:33;25.80;68.00
8711;DHT22;4392;47.400;8.062;2022-08-01T01:04:02;25.80;68.20
8711;DHT22;4392;47.400;8.062;2022-08-01T01:09:39;25.80;68.20
8711;DHT22;4392;47.400;8.062;2022-08-01T01:20:30;25.70;68.80
8711;DHT22;4392;47.400;8.062;2022-08-01T01:23:34;25.70;68.90
8711;DHT22;4392;47.400;8.062;2022-08-01T01:31:55;25.70;69.10
8711;DHT22;4392;47.400;8.062;2022-08-01T01:34:22;25.70;69.90
8711;DHT22;4392;47.400;8.062;2022-08-01T01:36:50;25.70;69.30
8711;DHT22;4392;47.400;8.062;2022-08-01T01:39:18;25.60;69.40
8711;DHT22;4392;47.400;8.062;2022-08-01T01:41:47;25.70;69.40
8711;DHT22;4392;47.400;8.062;2022-08-01T01:44:16;25.60;69.40
8711;DHT22;4392;47.400;8.062;2022-08-01T01:46:42;25.60;69.00
8711;DHT22;4392;47.400;8.062;2022-08-01T01:49:09;25.60;69.00
8711;DHT22;4392;47.400;8.062;2022-08-01T01:51:37;25.60;69.00
8711;DHT22;4392;47.400;8.062;2022-08-01T01:54:04;25.60;69.40
8711;DHT22;4392;47.400;8.062;2022-08-01T01:56:32;25.60;69.80
8711;DHT22;4392;47.400;8.062;2022-08-01T01:59:01;25.50;70.00
8711;DHT22;4392;47.400;8.062;2022-08-01T02:01:29;25.50;70.10
8711;DHT22;4392;47.400;8.062;2022-08-01T02:03:57;25.50;70.20
8711;DHT22;4392;47.400;8.062;2022-08-01T02:06:24;25.50;70.40
8711;DHT22;4392;47.400;8.062;2022-08-01T02:08:52;25.50;70.40
8711;DHT22;4392;47.400;8.062;2022-08-01T02:11:20;25.50;70.40
8711;DHT22;4392;47.400;8.062;2022-08-01T02:13:58;25.40;70.30
8711;DHT22;4392;47.400;8.062;2022-08-01T02:16:33;25.50;70.60
8711;DHT22;4392;47.400;8.062;2022-08-01T02:19:00;25.50;70.60
8711;DHT22;4392;47.400;8.062;2022-08-01T02:21:40;25.40;70.80
8711;DHT22;4392;47.400;8.062;2022-08-01T02:27:09;25.30;71.70
8711;DHT22;4392;47.400;8.062;2022-08-01T02:29:45;25.30;71.50
8711;DHT22;4392;47.400;8.062;2022-08-01T02:32:24;25.30;71.50
8711;DHT22;4392;47.400;8.062;2022-08-01T02:34:52;25.30;72.20
8711;DHT22;4392;47.400;8.062;2022-08-01T02:37:20;25.40;72.10
8711;DHT22;4392;47.400;8.062;2022-08-01T02:39:51;25.40;71.90
8711;DHT22;4392;47.400;8.062;2022-08-01T02:42:18;25.40;71.80
8711;DHT22;4392;47.400;8.062;2022-08-01T02:44:46;25.40;71.90
8711;DHT22;4392;47.400;8.062;2022-08-01T02:47:15;25.40;71.60
8711;DHT22;4392;47.400;8.062;2022-08-01T02:49:45;25.40;71.60
8711;DHT22;4392;47.400;8.062;2022-08-01T02:52:17;25.40;72.00
8711;DHT22;4392;47.400;8.062;2022-08-01T02:54:47;25.40;72.40
8711;DHT22;4392;47.400;8.062;2022-08-01T02:57:17;25.40;72.50
8711;DHT22;4392;47.400;8.062;2022-08-01T02:59:48;25.30;72.60
8711;DHT22;4392;47.400;8.062;2022-08-01T03:02:15;25.20;72.70
8711;DHT22;4392;47.400;8.062;2022-08-01T03:04:42;25.10;73.00
8711;DHT22;4392;47.400;8.062;2022-08-01T03:07:12;25.20;73.10
8711;DHT22;4392;47.400;8.062;2022-08-01T03:09:43;25.10;73.20
8711;DHT22;4392;47.400;8.062;2022-08-01T03:12:15;25.10;73.10
8711;DHT22;4392;47.400;8.062;2022-08-01T03:14:43;25.10;73.20
8711;DHT22;4392;47.400;8.062;2022-08-01T03:17:09;25.10;73.30
8711;DHT22;4392;47.400;8.062;2022-08-01T03:19:38;25.10;73.50
8711;DHT22;4392;47.400;8.062;2022-08-01T03:22:09;25.10;73.20
8711;DHT22;4392;47.400;8.062;2022-08-01T03:24:38;25.10;72.70
8711;DHT22;4392;47.400;8.062;2022-08-01T03:27:06;25.10;73.00
8711;DHT22;4392;47.400;8.062;2022-08-01T03:29:32;25.10;73.50
8711;DHT22;4392;47.400;8.062;2022-08-01T03:32:00;25.10;73.40
8711;DHT22;4392;47.400;8.062;2022-08-01T03:34:27;25.10;73.50
8711;DHT22;4392;47.400;8.062;2022-08-01T03:36:59;25.00;74.20
8711;DHT22;4392;47.400;8.062;2022-08-01T03:39:30;25.00;74.20
8711;DHT22;4392;47.400;8.062;2022-08-01T03:42:05;25.00;74.60
8711;DHT22;4392;47.400;8.062;2022-08-01T03:44:33;25.00;73.60
8711;DHT22;4392;47.400;8.062;2022-08-01T03:47:05;25.00;73.40
8711;DHT22;4392;47.400;8.062;2022-08-01T03:49:34;25.00;73.90
8711;DHT22;4392;47.400;8.062;2022-08-01T03:52:02;25.00;73.40
8711;DHT22;4392;47.400;8.062;2022-08-01T03:54:33;24.90;73.80
8711;DHT22;4392;47.400;8.062;2022-08-01T03:57:00;24.90;73.30
8711;DHT22;4392;47.400;8.062;2022-08-01T03:59:28;24.90;73.30
8711;DHT22;4392;47.400;8.062;2022-08-01T04:01:55;24.90;73.30
8711;DHT22;4392;47.400;8.062;2022-08-01T04:04:24;24.90;73.50
8711;DHT22;4392;47.400;8.062;2022-08-01T04:06:50;24.90;73.70
8711;DHT22;4392;47.400;8.062;2022-08-01T04:09:20;24.90;73.70
8711;DHT22;4392;47.400;8.062;2022-08-01T04:11:46;24.90;73.30
8711;DHT22;4392;47.400;8.062;2022-08-01T04:14:13;24.90;73.50
8711;DHT22;4392;47.400;8.062;2022-08-01T04:16:38;24.90;73.30
8711;DHT22;4392;47.400;8.062;2022-08-01T04:19:04;24.90;73.60
8711;DHT22;4392;47.400;8.062;2022-08-01T04:21:34;24.90;73.50
8711;DHT22;4392;47.400;8.062;2022-08-01T04:24:08;24.90;74.10
8711;DHT22;4392;47.400;8.062;2022-08-01T04:26:36;24.90;73.50
8711;DHT22;4392;47.400;8.062;2022-08-01T04:29:04;24.90;73.90
8711;DHT22;4392;47.400;8.062;2022-08-01T04:31:31;24.90;74.00
8711;DHT22;4392;47.400;8.062;2022-08-01T04:33:58;24.90;74.00
8711;DHT22;4392;47.400;8.062;2022-08-01T04:36:25;24.90;74.10
8711;DHT22;4392;47.400;8.062;2022-08-01T04:38:55;24.90;74.10
8711;DHT22;4392;47.400;8.062;2022-08-01T04:41:23;24.90;73.90
8711;DHT22;4392;47.400;8.062;2022-08-01T04:43:49;24.90;74.30
8711;DHT22;4392;47.400;8.062;2022-08-01T04:46:17;24.90;74.40
8711;DHT22;4392;47.400;8.062;2022-08-01T04:48:46;24.80;74.90
8711;DHT22;4392;47.400;8.062;2022-08-01T04:51:14;24.80;75.00
8711;DHT22;4392;47.400;8.062;2022-08-01T04:53:43;24.90;74.90
8711;DHT22;4392;47.400;8.062;2022-08-01T04:56:09;24.80;75.20
8711;DHT22;4392;47.400;8.062;2022-08-01T04:58:42;24.90;75.30
8711;DHT22;4392;47.400;8.062;2022-08-01T05:01:09;24.90;75.10
8711;DHT22;4392;47.400;8.062;2022-08-01T05:03:34;24.90;74.90
8711;DHT22;4392;47.400;8.062;2022-08-01T05:06:00;24.90;74.80
8711;DHT22;4392;47.400;8.062;2022-08-01T05:08:26;25.00;75.00
8711;DHT22;4392;47.400;8.062;2022-08-01T05:10:51;24.90;75.20
8711;DHT22;4392;47.400;8.062;2022-08-01T05:13:18;24.90;75.00
8711;DHT22;4392;47.400;8.062;2022-08-01T05:15:44;24.90;74.90
8711;DHT22;4392;47.400;8.062;2022-08-01T05:18:12;24.90;75.50
8711;DHT22;4392;47.400;8.062;2022-08-01T05:20:38;24.90;75.50
8711;DHT22;4392;47.400;8.062;2022-08-01T05:23:06;24.90;75.60
8711;DHT22;4392;47.400;8.062;2022-08-01T05:25:32;24.90;76.00
8711;DHT22;4392;47.400;8.062;2022-08-01T05:27:59;24.80;76.40
8711;DHT22;4392;47.400;8.062;2022-08-01T05:30:24;24.70;76.60
8711;DHT22;4392;47.400;8.062;2022-08-01T05:32:50;24.80;76.60
8711;DHT22;4392;47.400;8.062;2022-08-01T05:35:16;24.80;76.60
8711;DHT22;4392;47.400;8.062;2022-08-01T05:37:41;24.80;76.10
8711;DHT22;4392;47.400;8.062;2022-08-01T05:40:08;24.90;76.30
8711;DHT22;4392;47.400;8.062;2022-08-01T05:42:36;25.00;76.20
8711;DHT22;4392;47.400;8.062;2022-08-01T05:45:01;24.90;77.50
8711;DHT22;4392;47.400;8.062;2022-08-01T05:47:27;24.90;77.30
8711;DHT22;4392;47.400;8.062;2022-08-01T05:49:53;24.90;76.70
8711;DHT22;4392;47.400;8.062;2022-08-01T05:52:18;24.90;76.60
8711;DHT22;4392;47.400;8.062;2022-08-01T05:54:44;24.90;76.70
8711;DHT22;4392;47.400;8.062;2022-08-01T05:57:12;24.90;76.60
8711;DHT22;4392;47.400;8.062;2022-08-01T05:59:38;24.90;76.70
8711;DHT22;4392;47.400;8.062;2022-08-01T06:02:03;24.90;76.70
8711;DHT22;4392;47.400;8.062;2022-08-01T06:04:31;24.90;76.70
8711;DHT22;4392;47.400;8.062;2022-08-01T06:06:57;24.90;76.40
8711;DHT22;4392;47.400;8.062;2022-08-01T06:09:23;25.00;76.30
8711;DHT22;4392;47.400;8.062;2022-08-01T06:11:48;24.90;76.60
8711;DHT22;4392;47.400;8.062;2022-08-01T06:14:14;25.00;76.20
8711;DHT22;4392;47.400;8.062;2022-08-01T06:16:40;25.00;76.00
8711;DHT22;4392;47.400;8.062;2022-08-01T06:19:05;25.10;75.70
8711;DHT22;4392;47.400;8.062;2022-08-01T06:21:31;25.00;75.70
8711;DHT22;4392;47.400;8.062;2022-08-01T06:23:57;25.10;76.20
8711;DHT22;4392;47.400;8.062;2022-08-01T06:26:22;25.00;76.00
8711;DHT22;4392;47.400;8.062;2022-08-01T06:28:48;25.00;76.30
8711;DHT22;4392;47.400;8.062;2022-08-01T06:31:14;25.10;76.00
8711;DHT22;4392;47.400;8.062;2022-08-01T06:33:41;25.10;75.30
8711;DHT22;4392;47.400;8.062;2022-08-01T06:36:06;25.10;76.00
8711;DHT22;4392;47.400;8.062;2022-08-01T06:38:32;25.10;76.00
8711;DHT22;4392;47.400;8.062;2022-08-01T06:40:58;25.10;75.80
8711;DHT22;4392;47.400;8.062;2022-08-01T06:43:26;25.10;76.50
8711;DHT22;4392;47.400;8.062;2022-08-01T06:45:51;25.10;76.70
8711;DHT22;4392;47.400;8.062;2022-08-01T06:48:17;25.10;76.50
8711;DHT22;4392;47.400;8.062;2022-08-01T06:50:43;25.10;76.70
8711;DHT22;4392;47.400;8.062;2022-08-01T06:53:11;25.10;76.40
8711;DHT22;4392;47.400;8.062;2022-08-01T06:55:36;25.10;76.50
8711;DHT22;4392;47.400;8.062;2022-08-01T06:58:02;25.20;76.50
8711;DHT22;4392;47.400;8.062;2022-08-01T07:00:28;25.10;75.90
8711;DHT22;4392;47.400;8.062;2022-08-01T07:02:55;25.20;76.30
8711;DHT22;4392;47.400;8.062;2022-08-01T07:05:22;25.20;75.40
8711;DHT22;4392;47.400;8.062;2022-08-01T07:07:48;25.20;75.80
8711;DHT22;4392;47.400;8.062;2022-08-01T07:10:14;25.20;75.80
8711;DHT22;4392;47.400;8.062;2022-08-01T07:12:42;25.20;75.50
8711;DHT22;4392;47.400;8.062;2022-08-01T07:15:09;25.20;74.70
8711;DHT22;4392;47.400;8.062;2022-08-01T07:17:42;25.30;74.00
8711;DHT22;4392;47.400;8.062;2022-08-01T07:20:09;25.20;74.50
8711;DHT22;4392;47.400;8.062;2022-08-01T07:22:36;25.20;75.70
8711;DHT22;4392;47.400;8.062;2022-08-01T07:25:06;25.20;75.90
8711;DHT22;4392;47.400;8.062;2022-08-01T07:27:32;25.30;75.10
8711;DHT22;4392;47.400;8.062;2022-08-01T07:29:57;25.30;74.40
8711;DHT22;4392;47.400;8.062;2022-08-01T07:32:23;25.30;73.80
8711;DHT22;4392;47.400;8.062;2022-08-01T07:34:52;25.30;74.50
8711;DHT22;4392;47.400;8.062;2022-08-01T07:37:20;25.20;75.00
8711;DHT22;4392;47.400;8.062;2022-08-01T07:39:46;25.30;75.00
8711;DHT22;4392;47.400;8.062;2022-08-01T07:42:12;25.30;74.70
8711;DHT22;4392;47.400;8.062;2022-08-01T07:44:37;25.30;74.70
8711;DHT22;4392;47.400;8.062;2022-08-01T07:47:04;25.30;74.90
8711;DHT22;4392;47.400;8.062;2022-08-01T07:49:30;25.40;74.50
8711;DHT22;4392;47.400;8.062;2022-08-01T07:51:57;25.40;74.00
8711;DHT22;4392;47.400;8.062;2022-08-01T07:54:23;25.40;74.20
8711;DHT22;4392;47.400;8.062;2022-08-01T07:56:52;25.40;72.70
8711;DHT22;4392;47.400;8.062;2022-08-01T07:59:18;25.40;73.90
8711;DHT22;4392;47.400;8.062;2022-08-01T08:01:51;25.40;73.20
8711;DHT22;4392;47.400;8.062;2022-08-01T08:04:19;25.40;72.70
8711;DHT22;4392;47.400;8.062;2022-08-01T08:06:45;25.50;71.30
8711;DHT22;4392;47.400;8.062;2022-08-01T08:09:13;25.50;71.30
8711;DHT22;4392;47.400;8.062;2022-08-01T08:11:38;25.50;71.40
8711;DHT22;4392;47.400;8.062;2022-08-01T08:14:04;25.50;69.10
8711;DHT22;4392;47.400;8.062;2022-08-01T08:16:32;25.60;71.90
8711;DHT22;4392;47.400;8.062;2022-08-01T08:18:58;25.60;72.40
8711;DHT22;4392;47.400;8.062;2022-08-01T08:21:23;25.60;69.50
8711;DHT22;4392;47.400;8.062;2022-08-01T08:23:51;25.50;70.30
8711;DHT22;4392;47.400;8.062;2022-08-01T08:26:36;25.50;72.40
8711;DHT22;4392;47.400;8.062;2022-08-01T08:29:03;25.50;70.90
8711;DHT22;4392;47.400;8.062;2022-08-01T08:31:28;25.50;69.10
8711;DHT22;4392;47.400;8.062;2022-08-01T08:33:54;25.50;69.40
8711;DHT22;4392;47.400;8.062;2022-08-01T08:36:20;25.50;68.10
8711;DHT22;4392;47.400;8.062;2022-08-01T08:38:46;25.50;67.00
8711;DHT22;4392;47.400;8.062;2022-08-01T08:41:12;25.40;66.50
8711;DHT22;4392;47.400;8.062;2022-08-01T08:43:38;25.50;65.90
8711;DHT22;4392;47.400;8.062;2022-08-01T08:46:05;25.50;65.80
8711;DHT22;4392;47.400;8.062;2022-08-01T08:48:34;25.50;65.90
8711;DHT22;4392;47.400;8.062;2022-08-01T08:51:00;25.50;65.10
8711;DHT22;4392;47.400;8.062;2022-08-01T08:53:30;25.50;64.80
8711;DHT22;4392;47.400;8.062;2022-08-01T08:55:57;25.50;64.30
8711;DHT22;4392;47.400;8.062;2022-08-01T08:58:25;25.50;64.00
8711;DHT22;4392;47.400;8.062;2022-08-01T09:00:53;25.60;63.60
8711;DHT22;4392;47.400;8.062;2022-08-01T09:03:19;25.60;63.70
8711;DHT22;4392;47.400;8.062;2022-08-01T09:05:47;25.60;62.90
8711;DHT22;4392;47.400;8.062;2022-08-01T09:08:13;25.70;63.40
8711;DHT22;4392;47.400;8.062;2022-08-01T09:10:39;25.70;62.30
8711;DHT22;4392;47.400;8.062;2022-08-01T09:13:12;25.80;62.10
8711;DHT22;4392;47.400;8.062;2022-08-01T09:15:44;25.80;62.20
8711;DHT22;4392;47.400;8.062;2022-08-01T09:18:36;25.80;62.00
8711;DHT22;4392;47.400;8.062;2022-08-01T09:21:19;25.70;62.20
8711;DHT22;4392;47.400;8.062;2022-08-01T09:23:50;25.60;62.50
8711;DHT22;4392;47.400;8.062;2022-08-01T09:26:19;25.70;63.00
8711;DHT22;4392;47.400;8.062;2022-08-01T09:28:46;25.80;62.70
8711;DHT22;4392;47.400;8.062;2022-08-01T09:31:17;25.80;62.50
8711;DHT22;4392;47.400;8.062;2022-08-01T09:34:03;25.70;63.10
8711;DHT22;4392;47.400;8.062;2022-08-01T09:41:55;25.60;63.80
8711;DHT22;4392;47.400;8.062;2022-08-01T09:44:43;25.60;63.60
8711;DHT22;4392;47.400;8.062;2022-08-01T09:47:10;25.60;62.90
8711;DHT22;4392;47.400;8.062;2022-08-01T09:49:38;25.80;62.60
8711;DHT22;4392;47.400;8.062;2022-08-01T09:52:16;25.80;61.70
8711;DHT22;4392;47.400;8.062;2022-08-01T09:54:51;25.80;61.20
8711;DHT22;4392;47.400;8.062;2022-08-01T09:57:19;25.70;61.20
8711;DHT22;4392;47.400;8.062;2022-08-01T09:59:47;25.70;61.20
8711;DHT22;4392;47.400;8.062;2022-08-01T10:02:34;25.80;60.00
8711;DHT22;4392;47.400;8.062;2022-08-01T10:05:06;25.80;60.10
8711;DHT22;4392;47.400;8.062;2022-08-01T10:07:33;25.80;61.00
8711;DHT22;4392;47.400;8.062;2022-08-01T10:10:14;25.80;61.00
8711;DHT22;4392;47.400;8.062;2022-08-01T10:12:41;25.80;60.60
8711;DHT22;4392;47.400;8.062;2022-08-01T10:15:15;25.90;60.60
8711;DHT22;4392;47.400;8.062;2022-08-01T10:17:46;25.90;60.10
8711;DHT22;4392;47.400;8.062;2022-08-01T10:20:13;25.80;60.20
8711;DHT22;4392;47.400;8.062;2022-08-01T10:22:39;25.80;60.30
8711;DHT22;4392;47.400;8.062;2022-08-01T10:25:05;25.90;59.60
8711;DHT22;4392;47.400;8.062;2022-08-01T10:27:38;25.90;59.50
8711;DHT22;4392;47.400;8.062;2022-08-01T10:30:08;25.90;59.30
8711;DHT22;4392;47.400;8.062;2022-08-01T10:32:35;25.90;59.00
8711;DHT22;4392;47.400;8.062;2022-08-01T10:35:03;25.90;59.00
8711;DHT22;4392;47.400;8.062;2022-08-01T10:37:30;26.00;58.70
8711;DHT22;4392;47.400;8.062;2022-08-01T10:39:56;26.00;58.10
8711;DHT22;4392;47.400;8.062;2022-08-01T10:42:22;26.00;58.00
8711;DHT22;4392;47.400;8.062;2022-08-01T10:44:49;26.10;57.90
8711;DHT22;4392;47.400;8.062;2022-08-01T10:47:17;26.10;58.10
8711;DHT22;4392;47.400;8.062;2022-08-01T10:49:48;26.10;58.20
8711;DHT22;4392;47.400;8.062;2022-08-01T10:52:16;26.10;58.10
8711;DHT22;4392;47.400;8.062;2022-08-01T10:54:43;26.10;58.20
8711;DHT22;4392;47.400;8.062;2022-08-01T10:57:09;26.20;58.20
8711;DHT22;4392;47.400;8.062;2022-08-01T10:59:50;26.20;58.20
8711;DHT22;4392;47.400;8.062;2022-08-01T11:02:29;26.20;58.00
8711;DHT22;4392;47.400;8.062;2022-08-01T11:07:24;26.40;57.70
8711;DHT22;4392;47.400;8.062;2022-08-01T11:10:27;26.40;57.00
8711;DHT22;4392;47.400;8.062;2022-08-01T11:12:56;26.50;57.10
8711;DHT22;4392;47.400;8.062;2022-08-01T11:15:23;26.50;56.60
8711;DHT22;4392;47.400;8.062;2022-08-01T11:17:53;26.50;56.00
8711;DHT22;4392;47.400;8.062;2022-08-01T11:28:23;26.50;55.30
8711;DHT22;4392;47.400;8.062;2022-08-01T11:38:41;26.80;55.60
8711;DHT22;4392;47.400;8.062;2022-08-01T11:41:10;26.90;56.10
8711;DHT22;4392;47.400;8.062;2022-08-01T11:49:47;26.90;54.50
8711;DHT22;4392;47.400;8.062;2022-08-01T11:52:39;26.90;54.20
8711;DHT22;4392;47.400;8.062;2022-08-01T11:55:08;26.90;53.80
8711;DHT22;4392;47.400;8.062;2022-08-01T11:57:35;26.90;52.90
8711;DHT22;4392;47.400;8.062;2022-08-01T12:00:24;26.80;52.20
8711;DHT22;4392;47.400;8.062;2022-08-01T12:03:01;26.90;52.70
8711;DHT22;4392;47.400;8.062;2022-08-01T12:05:32;27.00;52.00
8711;DHT22;4392;47.400;8.062;2022-08-01T12:08:00;26.90;52.40
8711;DHT22;4392;47.400;8.062;2022-08-01T12:10:29;26.90;52.20
8711;DHT22;4392;47.400;8.062;2022-08-01T12:13:04;26.90;51.30
8711;DHT22;4392;47.400;8.062;2022-08-01T12:15:36;26.90;50.70
8711;DHT22;4392;47.400;8.062;2022-08-01T12:18:04;27.00;50.20
8711;DHT22;4392;47.400;8.062;2022-08-01T12:20:32;26.90;50.20
8711;DHT22;4392;47.400;8.062;2022-08-01T12:23:00;26.90;50.80
8711;DHT22;4392;47.400;8.062;2022-08-01T12:25:27;26.90;50.00
8711;DHT22;4392;47.400;8.062;2022-08-01T12:27:53;26.90;50.00
8711;DHT22;4392;47.400;8.062;2022-08-01T12:30:20;26.90;50.40
8711;DHT22;4392;47.400;8.062;2022-08-01T12:32:53;26.90;50.10
8711;DHT22;4392;47.400;8.062;2022-08-01T12:35:27;26.80;50.00
8711;DHT22;4392;47.400;8.062;2022-08-01T12:38:01;26.80;50.20
8711;DHT22;4392;47.400;8.062;2022-08-01T12:40:35;26.90;49.90
8711;DHT22;4392;47.400;8.062;2022-08-01T12:43:06;27.00;49.50
8711;DHT22;4392;47.400;8.062;2022-08-01T12:45:38;27.00;48.90
8711;DHT22;4392;47.400;8.062;2022-08-01T12:48:10;27.10;48.60
8711;DHT22;4392;47.400;8.062;2022-08-01T12:50:45;27.30;48.30
8711;DHT22;4392;47.400;8.062;2022-08-01T12:53:12;27.50;48.30
8711;DHT22;4392;47.400;8.062;2022-08-01T12:55:51;27.70;47.10
8711;DHT22;4392;47.400;8.062;2022-08-01T12:58:19;27.80;47.00
8711;DHT22;4392;47.400;8.062;2022-08-01T13:00:46;27.80;47.30
8711;DHT22;4392;47.400;8.062;2022-08-01T13:03:18;27.80;47.50
8711;DHT22;4392;47.400;8.062;2022-08-01T13:08:16;28.20;46.90
8711;DHT22;4392;47.400;8.062;2022-08-01T13:10:43;28.30;47.70
8711;DHT22;4392;47.400;8.062;2022-08-01T13:13:10;28.30;47.10
8711;DHT22;4392;47.400;8.062;2022-08-01T13:15:38;28.40;46.90
8711;DHT22;4392;47.400;8.062;2022-08-01T13:20:49;28.30;46.40
8711;DHT22;4392;47.400;8.062;2022-08-01T13:23:18;28.40;46.20
8711;DHT22;4392;47.400;8.062;2022-08-01T13:25:54;28.50;45.80
8711;DHT22;4392;47.400;8.062;2022-08-01T13:28:25;28.70;45.80
8711;DHT22;4392;47.400;8.062;2022-08-01T13:33:19;29.00;45.90
8711;DHT22;4392;47.400;8.062;2022-08-01T13:35:44;28.90;46.50
8711;DHT22;4392;47.400;8.062;2022-08-01T13:38:11;28.90;46.20
8711;DHT22;4392;47.400;8.062;2022-08-01T13:40:37;28.90;46.70
8711;DHT22;4392;47.400;8.062;2022-08-01T13:43:04;28.80;46.90
8711;DHT22;4392;47.400;8.062;2022-08-01T13:45:31;28.90;46.70
8711;DHT22;4392;47.400;8.062;2022-08-01T13:48:00;29.00;46.80
8711;DHT22;4392;47.400;8.062;2022-08-01T13:50:25;29.10;46.10
8711;DHT22;4392;47.400;8.062;2022-08-01T13:52:52;29.10;45.80
8711;DHT22;4392;47.400;8.062;2022-08-01T13:55:25;29.20;46.20
8711;DHT22;4392;47.400;8.062;2022-08-01T13:57:53;29.40;46.20
8711;DHT22;4392;47.400;8.062;2022-08-01T14:00:23;29.50;45.70
8711;DHT22;4392;47.400;8.062;2022-08-01T14:02:49;29.50;45.80
8711;DHT22;4392;47.400;8.062;2022-08-01T14:05:17;29.60;45.70
8711;DHT22;4392;47.400;8.062;2022-08-01T14:07:42;29.50;45.60
8711;DHT22;4392;47.400;8.062;2022-08-01T14:10:09;29.80;45.20
8711;DHT22;4392;47.400;8.062;2022-08-01T14:12:35;29.90;44.60
8711;DHT22;4392;47.400;8.062;2022-08-01T14:15:01;30.10;45.00
8711;DHT22;4392;47.400;8.062;2022-08-01T14:17:27;30.30;45.20
8711;DHT22;4392;47.400;8.062;2022-08-01T14:19:52;30.20;43.30
8711;DHT22;4392;47.400;8.062;2022-08-01T14:22:19;30.20;44.00
8711;DHT22;4392;47.400;8.062;2022-08-01T14:24:47;30.20;44.10
8711;DHT22;4392;47.400;8.062;2022-08-01T14:27:14;30.30;43.60
8711;DHT22;4392;47.400;8.062;2022-08-01T14:29:40;30.50;43.60
8711;DHT22;4392;47.400;8.062;2022-08-01T14:32:05;30.50;43.80
8711;DHT22;4392;47.400;8.062;2022-08-01T14:34:33;30.60;43.60
8711;DHT22;4392;47.400;8.062;2022-08-01T14:37:01;30.70;43.40
8711;DHT22;4392;47.400;8.062;2022-08-01T14:39:31;30.70;42.80
8711;DHT22;4392;47.400;8.062;2022-08-01T14:41:56;30.50;43.80
8711;DHT22;4392;47.400;8.062;2022-08-01T14:44:24;30.30;43.40
8711;DHT22;4392;47.400;8.062;2022-08-01T14:46:52;30.30;43.50
8711;DHT22;4392;47.400;8.062;2022-08-01T14:49:19;30.50;42.60
8711;DHT22;4392;47.400;8.062;2022-08-01T14:51:45;30.70;42.10
8711;DHT22;4392;47.400;8.062;2022-08-01T14:54:11;30.80;42.20
8711;DHT22;4392;47.400;8.062;2022-08-01T14:56:37;30.60;42.10
8711;DHT22;4392;47.400;8.062;2022-08-01T14:59:03;30.20;42.10
8711;DHT22;4392;47.400;8.062;2022-08-01T15:01:29;29.90;42.90
8711;DHT22;4392;47.400;8.062;2022-08-01T15:03:57;29.80;43.10
8711;DHT22;4392;47.400;8.062;2022-08-01T15:06:22;29.80;43.30
8711;DHT22;4392;47.400;8.062;2022-08-01T15:08:48;29.80;43.30
8711;DHT22;4392;47.400;8.062;2022-08-01T15:11:16;30.00;43.20
8711;DHT22;4392;47.400;8.062;2022-08-01T15:13:42;30.40;42.50
8711;DHT22;4392;47.400;8.062;2022-08-01T15:16:10;30.60;42.20
8711;DHT22;4392;47.400;8.062;2022-08-01T15:18:36;30.70;43.00
8711;DHT22;4392;47.400;8.062;2022-08-01T15:21:04;30.50;42.60
8711;DHT22;4392;47.400;8.062;2022-08-01T15:23:29;30.30;43.20
8711;DHT22;4392;47.400;8.062;2022-08-01T15:25:57;30.00;43.40
8711;DHT22;4392;47.400;8.062;2022-08-01T15:28:23;29.90;43.70
8711;DHT22;4392;47.400;8.062;2022-08-01T15:30:49;29.80;44.10
8711;DHT22;4392;47.400;8.062;2022-08-01T15:33:17;29.70;44.20
8711;DHT22;4392;47.400;8.062;2022-08-01T15:35:42;29.60;44.60
8711;DHT22;4392;47.400;8.062;2022-08-01T15:38:08;29.60;44.50
8711;DHT22;4392;47.400;8.062;2022-08-01T15:40:36;29.60;44.80
8711;DHT22;4392;47.400;8.062;2022-08-01T15:43:08;29.70;44.60
8711;DHT22;4392;47.400;8.062;2022-08-01T15:45:36;29.60;45.10
8711;DHT22;4392;47.400;8.062;2022-08-01T15:48:02;29.70;44.80
8711;DHT22;4392;47.400;8.062;2022-08-01T15:50:27;29.70;44.60
8711;DHT22;4392;47.400;8.062;2022-08-01T15:52:53;29.80;44.50
8711;DHT22;4392;47.400;8.062;2022-08-01T15:55:21;29.90;44.20
8711;DHT22;4392;47.400;8.062;2022-08-01T15:57:49;29.90;43.80
8711;DHT22;4392;47.400;8.062;2022-08-01T16:00:17;29.80;44.40
8711;DHT22;4392;47.400;8.062;2022-08-01T16:02:43;29.80;44.70
8711;DHT22;4392;47.400;8.062;2022-08-01T16:05:08;29.90;44.80
8711;DHT22;4392;47.400;8.062;2022-08-01T16:07:34;29.90;44.50
8711;DHT22;4392;47.400;8.062;2022-08-01T16:10:00;30.00;44.10
8711;DHT22;4392;47.400;8.062;2022-08-01T16:12:26;30.10;44.30
8711;DHT22;4392;47.400;8.062;2022-08-01T16:14:52;30.20;44.50
8711;DHT22;4392;47.400;8.062;2022-08-01T16:17:18;30.10;44.20
8711;DHT22;4392;47.400;8.062;2022-08-01T16:19:44;30.00;44.40
8711;DHT22;4392;47.400;8.062;2022-08-01T16:22:09;29.90;44.80
8711;DHT22;4392;47.400;8.062;2022-08-01T16:24:35;29.90;45.40
8711;DHT22;4392;47.400;8.062;2022-08-01T16:27:01;29.90;45.30
8711;DHT22;4392;47.400;8.062;2022-08-01T16:29:26;29.80;45.70
8711;DHT22;4392;47.400;8.062;2022-08-01T16:31:56;29.80;45.90
8711;DHT22;4392;47.400;8.062;2022-08-01T16:34:24;29.50;46.00
8711;DHT22;4392;47.400;8.062;2022-08-01T16:36:50;29.40;46.30
8711;DHT22;4392;47.400;8.062;2022-08-01T16:39:17;29.40;46.90
8711;DHT22;4392;47.400;8.062;2022-08-01T16:41:43;29.40;46.90
8711;DHT22;4392;47.400;8.062;2022-08-01T16:44:11;29.20;46.80
8711;DHT22;4392;47.400;8.062;2022-08-01T16:46:37;29.10;47.10
8711;DHT22;4392;47.400;8.062;2022-08-01T16:49:02;29.10;47.10
8711;DHT22;4392;47.400;8.062;2022-08-01T16:51:28;29.00;47.60
8711;DHT22;4392;47.400;8.062;2022-08-01T16:53:54;28.80;47.60
8711;DHT22;4392;47.400;8.062;2022-08-01T16:56:19;28.70;47.50
8711;DHT22;4392;47.400;8.062;2022-08-01T16:58:48;28.70;47.80
8711;DHT22;4392;47.400;8.062;2022-08-01T17:01:16;28.70;48.30
8711;DHT22;4392;47.400;8.062;2022-08-01T17:03:45;28.60;48.30
8711;DHT22;4392;47.400;8.062;2022-08-01T17:06:12;28.70;48.90